createdAt,value
2023-03-21T00:00:35.508Z,8.10
2023-03-21T00:03:03.407Z,8.10
2023-03-21T00:05:31.460Z,8.10
2023-03-21T00:08:01.080Z,8.10
2023-03-21T00:10:40.067Z,8.10
2023-03-21T00:13:19.262Z,8.00
2023-03-21T00:16:07.540Z,8.00
2023-03-21T00:18:46.443Z,8.00
2023-03-21T00:24:07.951Z,8.00
2023-03-21T00:26:36.153Z,8.00
2023-03-21T00:29:07.094Z,8.00
2023-03-21T00:31:35.036Z,8.10
2023-03-21T00:34:03.238Z,8.00
2023-03-21T00:36:32.085Z,8.00
2023-03-21T00:39:00.689Z,8.00
2023-03-21T00:41:41.440Z,8.00
2023-03-21T00:44:13.395Z,8.00
2023-03-21T00:46:54.453Z,7.90
2023-03-21T00:49:29.341Z,7.90
2023-03-21T00:51:59.484Z,7.90
2023-03-21T00:54:34.183Z,7.90
2023-03-21T00:57:02.974Z,8.00
2023-03-21T00:59:32.427Z,7.90
2023-03-21T01:02:07.174Z,7.90
2023-03-21T01:04:35.525Z,7.90
2023-03-21T01:07:03.391Z,7.90
2023-03-21T01:09:31.317Z,7.90
2023-03-21T01:11:59.107Z,7.90
2023-03-21T01:14:27.167Z,7.80
2023-03-21T01:16:56.370Z,7.80
2023-03-21T01:19:40.612Z,7.90
2023-03-21T01:22:12.522Z,7.90
2023-03-21T01:24:50.225Z,7.90
2023-03-21T01:27:20.211Z,7.90
2023-03-21T01:29:48.034Z,7.90
2023-03-21T01:32:17.196Z,7.90
2023-03-21T01:34:45.132Z,7.80
2023-03-21T01:37:13.111Z,7.80
2023-03-21T01:39:41.072Z,7.80
2023-03-21T01:42:13.747Z,7.80
2023-03-21T01:44:54.663Z,7.80
2023-03-21T01:47:23.785Z,7.80
2023-03-21T01:49:56.553Z,7.80
2023-03-21T01:52:36.406Z,7.80
2023-03-21T01:55:07.158Z,7.80
2023-03-21T01:57:43.865Z,7.80
2023-03-21T02:00:14.153Z,7.80
2023-03-21T02:02:58.124Z,7.80
2023-03-21T02:05:35.104Z,7.80
2023-03-21T02:08:03.175Z,7.80
2023-03-21T02:10:33.161Z,7.70
2023-03-21T02:13:09.301Z,7.80
2023-03-21T02:15:38.365Z,7.80
2023-03-21T02:18:15.720Z,7.80
2023-03-21T02:21:11.577Z,7.80
2023-03-21T02:24:02.246Z,7.80
2023-03-21T02:26:52.509Z,7.80
2023-03-21T02:30:05.536Z,7.80
2023-03-21T02:32:48.634Z,7.80
2023-03-21T02:35:39.091Z,7.70
2023-03-21T02:38:15.390Z,7.70
2023-03-21T02:40:47.263Z,7.70
2023-03-21T02:43:23.731Z,7.70
2023-03-21T02:45:55.823Z,7.70
2023-03-21T02:48:38.047Z,7.80
2023-03-21T02:51:17.861Z,7.80
2023-03-21T02:53:53.377Z,7.70
2023-03-21T02:56:28.735Z,7.70
2023-03-21T02:58:56.646Z,7.70
2023-03-21T03:01:25.980Z,7.80
2023-03-21T03:03:53.923Z,7.70
2023-03-21T03:06:25.819Z,7.70
2023-03-21T03:09:07.376Z,7.80
2023-03-21T03:11:37.335Z,7.80
2023-03-21T03:14:44.349Z,7.80
2023-03-21T03:17:23.442Z,7.80
2023-03-21T03:20:16.199Z,7.80
2023-03-21T03:22:53.337Z,7.80
2023-03-21T03:25:41.595Z,7.70
2023-03-21T03:28:11.610Z,7.70
2023-03-21T03:30:48.672Z,7.70
2023-03-21T03:33:24.410Z,7.60
2023-03-21T03:36:04.946Z,7.70
2023-03-21T03:38:36.546Z,7.70
2023-03-21T03:41:11.666Z,7.70
2023-03-21T03:43:46.792Z,7.60
2023-03-21T03:46:18.419Z,7.70
2023-03-21T03:48:50.719Z,7.60
2023-03-21T03:51:24.680Z,7.70
2023-03-21T03:53:56.622Z,7.70
2023-03-21T03:56:27.080Z,7.60
2023-03-21T03:58:54.955Z,7.60
2023-03-21T04:01:22.719Z,7.60
2023-03-21T04:03:58.592Z,7.60
2023-03-21T04:06:32.516Z,7.60
2023-03-21T04:09:03.501Z,7.60
2023-03-21T04:11:34.696Z,7.60
2023-03-21T04:14:03.731Z,7.60
2023-03-21T04:16:35.192Z,7.60
2023-03-21T04:19:03.911Z,7.60
2023-03-21T04:21:31.938Z,7.60
2023-03-21T04:23:59.750Z,7.60
2023-03-21T04:26:32.760Z,7.60
2023-03-21T04:29:02.861Z,7.60
2023-03-21T04:31:33.808Z,7.60
2023-03-21T04:34:03.412Z,7.60
2023-03-21T04:36:39.081Z,7.60
2023-03-21T04:39:12.139Z,7.60
2023-03-21T04:41:40.476Z,7.50
2023-03-21T04:44:11.694Z,7.50
2023-03-21T04:46:40.427Z,7.50
2023-03-21T04:49:08.625Z,7.50
2023-03-21T04:51:37.050Z,7.50
2023-03-21T04:54:05.739Z,7.50
2023-03-21T04:56:35.357Z,7.50
2023-03-21T04:59:07.829Z,7.50
2023-03-21T05:01:37.015Z,7.50
2023-03-21T05:04:06.378Z,7.50
2023-03-21T05:06:34.986Z,7.50
2023-03-21T05:09:05.385Z,7.50
2023-03-21T05:11:38.569Z,7.50
2023-03-21T05:14:07.124Z,7.50
2023-03-21T05:16:38.651Z,7.50
2023-03-21T05:19:07.214Z,7.50
2023-03-21T05:21:41.392Z,7.50
2023-03-21T05:24:12.111Z,7.50
2023-03-21T05:26:40.080Z,7.40
2023-03-21T05:29:08.247Z,7.40
2023-03-21T05:31:37.473Z,7.40
2023-03-21T05:34:05.259Z,7.40
2023-03-21T05:36:33.976Z,7.40
2023-03-21T05:39:01.868Z,7.40
2023-03-21T05:41:29.794Z,7.40
2023-03-21T05:43:57.762Z,7.50
2023-03-21T05:46:25.592Z,7.50
2023-03-21T05:48:54.840Z,7.50
2023-03-21T05:51:22.900Z,7.40
2023-03-21T05:53:51.796Z,7.50
2023-03-21T05:56:19.931Z,7.50
2023-03-21T05:58:47.814Z,7.50
2023-03-21T06:01:15.833Z,7.50
2023-03-21T06:03:43.876Z,7.60
2023-03-21T06:06:13.020Z,7.60
2023-03-21T06:08:40.824Z,7.60
2023-03-21T06:11:17.892Z,7.70
2023-03-21T06:13:45.746Z,7.70
2023-03-21T06:16:13.525Z,7.70
2023-03-21T06:18:41.464Z,7.70
2023-03-21T06:21:09.381Z,7.70
2023-03-21T06:23:39.717Z,7.70
2023-03-21T06:26:08.386Z,7.60
2023-03-21T06:28:36.177Z,7.50
2023-03-21T06:31:04.116Z,7.60
2023-03-21T06:33:31.900Z,7.70
2023-03-21T06:36:00.301Z,7.70
2023-03-21T06:38:28.105Z,7.80
2023-03-21T06:40:57.280Z,7.80
2023-03-21T06:43:25.566Z,7.80
2023-03-21T06:45:53.380Z,7.80
2023-03-21T06:48:21.271Z,7.90
2023-03-21T06:50:50.206Z,7.90
2023-03-21T06:53:18.310Z,7.90
2023-03-21T06:55:50.391Z,8.00
2023-03-21T06:58:19.702Z,8.00
2023-03-21T07:00:47.645Z,8.00
2023-03-21T07:03:16.778Z,8.00
2023-03-21T07:05:44.601Z,8.10
2023-03-21T07:08:13.950Z,8.10
2023-03-21T07:10:43.778Z,8.10
2023-03-21T07:13:12.836Z,8.10
2023-03-21T07:15:42.338Z,8.10
2023-03-21T07:18:11.313Z,8.20
2023-03-21T07:20:39.130Z,8.20
2023-03-21T07:23:07.662Z,8.30
2023-03-21T07:25:35.886Z,8.30
2023-03-21T07:28:03.876Z,8.30
2023-03-21T07:30:31.619Z,8.40
2023-03-21T07:33:00.845Z,8.40
2023-03-21T07:35:28.671Z,8.50
2023-03-21T07:37:56.534Z,8.50
2023-03-21T07:40:24.373Z,8.50
2023-03-21T07:42:52.887Z,8.50
2023-03-21T07:45:23.584Z,8.50
2023-03-21T07:47:54.220Z,8.60
2023-03-21T07:50:23.444Z,8.60
2023-03-21T07:52:51.283Z,8.60
2023-03-21T07:55:19.399Z,8.70
2023-03-21T07:57:47.305Z,8.70
2023-03-21T08:00:22.787Z,8.70
2023-03-21T08:02:57.900Z,8.80
2023-03-21T08:05:30.079Z,8.80
2023-03-21T08:07:58.188Z,8.80
2023-03-21T08:10:26.384Z,9.00
2023-03-21T08:12:54.208Z,9.00
2023-03-21T08:15:22.221Z,9.00
2023-03-21T08:17:50.142Z,9.10
2023-03-21T08:20:21.947Z,9.20
2023-03-21T08:22:51.427Z,9.20
2023-03-21T08:25:21.580Z,9.30
2023-03-21T08:27:50.444Z,9.40
2023-03-21T08:30:19.855Z,9.30
2023-03-21T08:32:47.839Z,9.30
2023-03-21T08:35:17.500Z,9.30
2023-03-21T08:37:45.650Z,9.40
2023-03-21T08:40:17.319Z,9.30
2023-03-21T08:42:46.437Z,9.50
2023-03-21T08:45:15.667Z,9.40
2023-03-21T08:47:43.692Z,9.50
2023-03-21T08:50:14.264Z,9.70
2023-03-21T08:52:42.122Z,9.70
2023-03-21T08:55:10.897Z,9.60
2023-03-21T08:57:40.114Z,9.80
2023-03-21T09:00:12.981Z,9.80
2023-03-21T09:02:41.155Z,9.80
2023-03-21T09:05:11.781Z,10.00
2023-03-21T09:07:39.744Z,10.10
2023-03-21T09:10:22.845Z,10.20
2023-03-21T09:12:54.437Z,10.20
2023-03-21T09:15:24.235Z,10.40
2023-03-21T09:17:52.668Z,10.40
2023-03-21T09:20:25.943Z,10.50
2023-03-21T09:22:54.751Z,10.60
2023-03-21T09:25:23.630Z,10.50
2023-03-21T09:27:54.357Z,10.80
2023-03-21T09:30:25.607Z,10.80
2023-03-21T09:32:55.667Z,10.70
2023-03-21T09:35:24.730Z,10.80
2023-03-21T09:37:52.727Z,10.90
2023-03-21T09:40:29.862Z,10.90
2023-03-21T09:43:07.245Z,10.80
2023-03-21T09:45:42.901Z,10.80
2023-03-21T09:48:19.982Z,10.70
2023-03-21T09:50:48.442Z,10.80
2023-03-21T09:53:23.320Z,11.20
2023-03-21T09:55:53.971Z,11.30
2023-03-21T09:58:29.506Z,11.10
2023-03-21T10:01:05.197Z,11.10
2023-03-21T10:03:35.502Z,11.20
2023-03-21T10:06:08.314Z,11.40
2023-03-21T10:08:41.388Z,11.60
2023-03-21T10:11:13.319Z,11.70
2023-03-21T10:13:45.696Z,11.70
2023-03-21T10:16:16.731Z,11.80
2023-03-21T10:18:46.655Z,11.90
2023-03-21T10:21:47.482Z,12.00
2023-03-21T10:24:12.702Z,12.20
2023-03-21T10:26:41.145Z,12.20
2023-03-21T10:29:13.381Z,12.20
2023-03-21T10:31:42.925Z,12.60
2023-03-21T10:34:17.366Z,12.70
2023-03-21T10:36:45.661Z,12.50
2023-03-21T10:39:22.745Z,12.80
2023-03-21T10:41:50.485Z,12.90
2023-03-21T10:44:21.340Z,12.80
2023-03-21T10:46:54.818Z,12.90
2023-03-21T10:49:23.056Z,13.00
2023-03-21T10:51:53.561Z,13.00
2023-03-21T10:54:23.709Z,13.10
2023-03-21T10:56:58.421Z,13.70
2023-03-21T10:59:30.411Z,14.20
2023-03-21T11:01:58.687Z,13.90
2023-03-21T11:04:29.549Z,14.00
2023-03-21T11:07:01.181Z,14.20
2023-03-21T11:09:45.992Z,14.20
2023-03-21T11:12:15.687Z,14.40
2023-03-21T11:14:46.512Z,13.80
2023-03-21T11:17:22.849Z,13.50
2023-03-21T11:19:52.377Z,14.40
2023-03-21T11:22:22.405Z,14.80
2023-03-21T11:24:54.047Z,14.80
2023-03-21T11:27:22.151Z,15.00
2023-03-21T11:29:52.453Z,14.50
2023-03-21T11:32:26.157Z,14.80
2023-03-21T11:34:59.838Z,15.00
2023-03-21T11:37:29.485Z,15.20
2023-03-21T11:40:06.230Z,15.10
2023-03-21T11:42:43.271Z,14.60
2023-03-21T11:45:16.148Z,15.20
2023-03-21T11:47:44.587Z,15.20
2023-03-21T11:50:21.768Z,14.00
2023-03-21T11:53:03.289Z,14.70
2023-03-21T11:55:42.202Z,14.50
2023-03-21T11:58:27.332Z,14.70
2023-03-21T12:01:09.032Z,14.60
2023-03-21T12:04:03.802Z,15.10
2023-03-21T12:06:37.582Z,15.90
2023-03-21T12:09:25.922Z,15.80
2023-03-21T12:12:04.297Z,15.20
2023-03-21T12:14:41.355Z,16.00
2023-03-21T12:17:23.453Z,16.50
2023-03-21T12:20:18.336Z,15.00
2023-03-21T12:22:57.773Z,14.90
2023-03-21T12:25:29.006Z,16.00
2023-03-21T12:28:05.649Z,15.50
2023-03-21T12:30:43.094Z,15.70
2023-03-21T12:33:25.566Z,16.60
2023-03-21T12:36:02.993Z,17.00
2023-03-21T12:38:41.057Z,16.60
2023-03-21T12:41:25.494Z,16.60
2023-03-21T12:43:59.136Z,14.70
2023-03-21T12:46:34.467Z,14.80
2023-03-21T12:49:09.711Z,16.20
2023-03-21T12:51:42.085Z,15.80
2023-03-21T12:54:17.439Z,16.10
2023-03-21T12:56:53.120Z,16.10
2023-03-21T12:59:26.464Z,15.50
2023-03-21T13:01:58.971Z,15.80
2023-03-21T13:04:36.607Z,16.50
2023-03-21T13:07:10.346Z,16.80
2023-03-21T13:09:39.919Z,16.90
2023-03-21T13:12:20.531Z,16.70
2023-03-21T13:15:00.964Z,16.70
2023-03-21T13:17:37.017Z,16.50
2023-03-21T13:20:15.309Z,16.00
2023-03-21T13:22:43.171Z,15.70
2023-03-21T13:25:19.863Z,15.90
2023-03-21T13:27:53.862Z,16.10
2023-03-21T13:30:26.045Z,15.90
2023-03-21T13:33:03.762Z,15.70
2023-03-21T13:35:38.444Z,16.30
2023-03-21T13:38:12.780Z,16.60
2023-03-21T13:40:44.696Z,16.60
2023-03-21T13:43:35.434Z,16.80
2023-03-21T13:46:11.143Z,16.90
2023-03-21T13:49:00.444Z,16.80
2023-03-21T13:51:47.446Z,16.90
2023-03-21T13:54:21.708Z,16.90
2023-03-21T13:56:52.667Z,16.70
2023-03-21T13:59:36.662Z,16.50
2023-03-21T14:02:21.458Z,16.30
2023-03-21T14:05:04.822Z,16.10
2023-03-21T14:07:36.843Z,15.90
2023-03-21T14:10:09.580Z,15.80
2023-03-21T14:12:41.089Z,16.20
2023-03-21T14:15:17.180Z,16.80
2023-03-21T14:17:52.189Z,16.90
2023-03-21T14:20:23.608Z,16.50
2023-03-21T14:22:53.160Z,16.10
2023-03-21T14:25:24.313Z,16.00
2023-03-21T14:27:55.485Z,15.90
2023-03-21T14:30:27.473Z,16.10
2023-03-21T14:32:58.697Z,16.60
2023-03-21T14:35:31.346Z,16.50
2023-03-21T14:38:05.268Z,16.30
2023-03-21T14:40:33.083Z,16.00
2023-03-21T14:43:07.509Z,16.20
2023-03-21T14:45:37.443Z,16.00
2023-03-21T14:48:07.785Z,16.00
2023-03-21T14:50:41.740Z,15.80
2023-03-21T14:53:15.549Z,15.70
2023-03-21T14:55:45.662Z,15.70
2023-03-21T14:58:17.853Z,15.70
2023-03-21T15:00:49.386Z,15.50
2023-03-21T15:03:18.765Z,15.30
2023-03-21T15:05:47.512Z,15.20
2023-03-21T15:08:18.740Z,15.40
2023-03-21T15:11:06.127Z,15.30
2023-03-21T15:13:37.230Z,15.30
2023-03-21T15:16:06.273Z,15.30
2023-03-21T15:18:37.208Z,15.00
2023-03-21T15:21:09.787Z,15.30
2023-03-21T15:23:42.934Z,15.30
2023-03-21T15:26:15.708Z,15.40
2023-03-21T15:28:46.501Z,15.10
2023-03-21T15:31:18.471Z,15.20
2023-03-21T15:33:47.906Z,15.00
2023-03-21T15:36:20.525Z,15.10
2023-03-21T15:38:50.795Z,14.90
2023-03-21T15:41:29.071Z,15.00
2023-03-21T15:44:04.967Z,15.20
2023-03-21T15:46:42.470Z,15.30
2023-03-21T15:49:22.714Z,15.20
2023-03-21T15:51:54.690Z,15.20
2023-03-21T15:54:27.055Z,15.10
2023-03-21T15:56:56.410Z,15.20
2023-03-21T15:59:28.548Z,15.20
2023-03-21T16:01:56.417Z,15.20
2023-03-21T16:04:25.797Z,15.20
2023-03-21T16:07:00.032Z,15.00
2023-03-21T16:09:43.817Z,15.00
2023-03-21T16:12:14.301Z,15.00
2023-03-21T16:14:43.335Z,15.00
2023-03-21T16:17:28.952Z,15.00
2023-03-21T16:19:56.835Z,15.00
2023-03-21T16:22:24.600Z,15.00
2023-03-21T16:24:53.918Z,14.90
2023-03-21T16:27:22.418Z,14.80
2023-03-21T16:29:50.174Z,14.80
2023-03-21T16:32:20.494Z,14.80
2023-03-21T16:34:48.304Z,14.80
2023-03-21T16:37:16.661Z,14.80
2023-03-21T16:39:44.576Z,14.80
2023-03-21T16:42:13.913Z,14.70
2023-03-21T16:44:41.643Z,14.70
2023-03-21T16:47:15.615Z,14.70
2023-03-21T16:49:43.835Z,14.60
2023-03-21T16:52:12.327Z,14.60
2023-03-21T16:54:41.078Z,14.60
2023-03-21T16:57:18.217Z,14.50
2023-03-21T16:59:47.511Z,14.50
2023-03-21T17:03:26.094Z,14.50
2023-03-21T17:05:54.229Z,14.50
2023-03-21T17:08:22.532Z,14.50
2023-03-21T17:10:50.356Z,14.40
2023-03-21T17:13:18.269Z,14.40
2023-03-21T17:15:47.386Z,14.40
2023-03-21T17:18:15.270Z,14.30
2023-03-21T17:20:43.078Z,14.30
2023-03-21T17:23:11.858Z,14.30
2023-03-21T17:25:39.699Z,14.20
2023-03-21T17:28:07.538Z,14.20
2023-03-21T17:30:39.324Z,14.10
2023-03-21T17:33:08.945Z,14.10
2023-03-21T17:35:36.742Z,14.10
2023-03-21T17:38:17.903Z,14.00
2023-03-21T17:40:45.770Z,14.00
2023-03-21T17:43:17.978Z,13.90
2023-03-21T17:45:45.934Z,13.90
2023-03-21T17:48:15.288Z,13.90
2023-03-21T17:50:43.146Z,13.90
2023-03-21T17:53:10.957Z,13.80
2023-03-21T17:55:39.749Z,13.80
2023-03-21T17:58:07.541Z,13.80
2023-03-21T18:00:35.806Z,13.70
2023-03-21T18:03:05.873Z,13.70
2023-03-21T18:05:35.127Z,13.70
2023-03-21T18:08:10.196Z,13.70
2023-03-21T18:10:39.962Z,13.60
2023-03-21T18:13:08.244Z,13.60
2023-03-21T18:15:38.227Z,13.60
2023-03-21T18:18:06.662Z,13.50
2023-03-21T18:20:51.801Z,13.50
2023-03-21T18:23:20.812Z,13.50
2023-03-21T18:25:48.680Z,13.40
2023-03-21T18:28:20.513Z,13.40
2023-03-21T18:31:07.708Z,13.40
2023-03-21T18:33:37.703Z,13.40
2023-03-21T18:36:08.225Z,13.40
2023-03-21T18:38:36.481Z,13.40
2023-03-21T18:41:04.767Z,13.40
2023-03-21T18:46:20.655Z,13.40
2023-03-21T18:48:49.195Z,13.30
2023-03-21T18:51:19.268Z,13.30
2023-03-21T18:53:47.063Z,13.30
2023-03-21T18:56:57.675Z,13.30
2023-03-21T18:59:03.281Z,13.30
2023-03-21T19:01:31.408Z,13.20
2023-03-21T19:04:20.708Z,13.20
2023-03-21T19:06:52.923Z,13.20
2023-03-21T19:09:29.092Z,13.20
2023-03-21T19:11:59.645Z,13.20
2023-03-21T19:14:27.975Z,13.20
2023-03-21T19:19:46.649Z,13.10
2023-03-21T19:22:16.069Z,13.10
2023-03-21T19:24:44.394Z,13.10
2023-03-21T19:27:13.163Z,13.00
2023-03-21T19:29:41.299Z,13.00
2023-03-21T19:32:09.191Z,13.00
2023-03-21T19:34:37.097Z,13.00
2023-03-21T19:37:05.147Z,13.00
2023-03-21T19:39:34.346Z,13.00
2023-03-21T19:42:15.530Z,12.90
2023-03-21T19:44:44.242Z,12.90
2023-03-21T19:47:12.261Z,12.90
2023-03-21T19:50:30.791Z,12.80
2023-03-21T19:52:29.166Z,12.80
2023-03-21T19:54:58.234Z,12.80
2023-03-21T19:57:26.203Z,12.80
2023-03-21T19:59:54.778Z,12.70
2023-03-21T20:02:35.063Z,12.70
2023-03-21T20:05:03.217Z,12.70
2023-03-21T20:07:32.532Z,12.70
2023-03-21T20:10:01.757Z,12.60
2023-03-21T20:12:29.636Z,12.60
2023-03-21T20:15:10.266Z,12.60
2023-03-21T20:17:44.787Z,12.60
2023-03-21T20:20:17.110Z,12.60
2023-03-21T20:25:35.374Z,12.50
2023-03-21T20:28:25.617Z,12.50
2023-03-21T20:30:52.817Z,12.40
2023-03-21T20:33:20.822Z,12.40
2023-03-21T20:38:38.084Z,12.40
2023-03-21T20:41:07.910Z,12.30
2023-03-21T20:44:24.450Z,12.30
2023-03-21T20:46:23.946Z,12.30
2023-03-21T20:48:51.784Z,12.20
2023-03-21T20:54:07.335Z,12.20
2023-03-21T20:56:36.494Z,12.20
2023-03-21T20:59:17.336Z,12.20
2023-03-21T21:01:48.590Z,12.20
2023-03-21T21:04:19.879Z,12.10
2023-03-21T21:06:48.086Z,12.10
2023-03-21T21:09:15.920Z,12.10
2023-03-21T21:14:35.370Z,12.00
2023-03-21T21:17:20.986Z,12.00
2023-03-21T21:19:51.357Z,11.90
2023-03-21T21:22:19.215Z,11.90
2023-03-21T21:24:47.085Z,11.90
2023-03-21T21:27:16.264Z,11.90
2023-03-21T21:29:47.467Z,11.80
2023-03-21T21:32:18.562Z,11.80
2023-03-21T21:34:47.701Z,11.80
2023-03-21T21:37:15.577Z,11.70
2023-03-21T21:39:43.408Z,11.80
2023-03-21T21:42:11.223Z,11.80
2023-03-21T21:44:44.063Z,11.70
2023-03-21T21:47:12.042Z,11.70
2023-03-21T21:49:39.958Z,11.70
2023-03-21T21:52:07.884Z,11.70
2023-03-21T21:54:36.019Z,11.70
2023-03-21T21:57:04.072Z,11.60
2023-03-21T21:59:32.094Z,11.60
2023-03-21T22:02:01.702Z,11.50
2023-03-21T22:04:30.033Z,11.50
2023-03-21T22:06:57.908Z,11.50
2023-03-21T22:09:25.733Z,11.50
2023-03-21T22:11:53.624Z,11.40
2023-03-21T22:14:21.520Z,11.40
2023-03-21T22:16:49.492Z,11.40
2023-03-21T22:19:19.068Z,11.30
2023-03-21T22:21:46.831Z,11.40
2023-03-21T22:24:14.691Z,11.40
2023-03-21T22:26:42.491Z,11.30
2023-03-21T22:29:10.528Z,11.30
2023-03-21T22:31:41.682Z,11.30
2023-03-21T22:34:09.845Z,11.20
2023-03-21T22:36:46.487Z,11.20
2023-03-21T22:39:14.394Z,11.10
2023-03-21T22:41:42.386Z,11.10
2023-03-21T22:44:10.224Z,11.10
2023-03-21T22:46:38.051Z,11.10
2023-03-21T22:49:06.365Z,11.00
2023-03-21T22:51:34.202Z,11.00
2023-03-21T22:54:03.411Z,11.00
2023-03-21T22:56:31.170Z,11.00
2023-03-21T23:01:41.028Z,10.90
2023-03-21T23:04:08.938Z,10.90
2023-03-21T23:06:37.393Z,10.80
2023-03-21T23:09:06.612Z,10.80
2023-03-21T23:11:34.394Z,10.80
2023-03-21T23:14:08.062Z,10.80
2023-03-21T23:16:38.271Z,10.70
2023-03-21T23:19:07.693Z,10.70
2023-03-21T23:21:38.106Z,10.70
2023-03-21T23:24:08.505Z,10.70
2023-03-21T23:26:36.489Z,10.60
2023-03-21T23:29:05.022Z,10.70
2023-03-21T23:31:33.829Z,10.60
2023-03-21T23:34:02.096Z,10.60
2023-03-21T23:36:30.539Z,10.60
2023-03-21T23:38:59.058Z,10.60
2023-03-21T23:41:28.667Z,10.50
2023-03-21T23:43:56.495Z,10.50
2023-03-21T23:46:24.414Z,10.50
2023-03-21T23:48:53.222Z,10.40
2023-03-21T23:51:21.041Z,10.50
2023-03-21T23:53:49.006Z,10.40
2023-03-21T23:56:19.020Z,10.40
2023-03-21T23:58:49.705Z,10.30
